createdAt,value
2023-03-07T00:01:42.184Z,94.60
2023-03-07T00:04:11.994Z,94.60
2023-03-07T00:06:41.146Z,94.60
2023-03-07T00:09:11.319Z,94.50
2023-03-07T00:11:40.473Z,94.50
2023-03-07T00:14:10.619Z,94.50
2023-03-07T00:16:39.721Z,94.60
2023-03-07T00:19:09.090Z,94.50
2023-03-07T00:21:38.274Z,94.50
2023-03-07T00:24:07.952Z,94.40
2023-03-07T00:26:40.644Z,94.40
2023-03-07T00:29:11.373Z,94.50
2023-03-07T00:31:40.883Z,94.40
2023-03-07T00:34:10.005Z,94.40
2023-03-07T00:36:39.211Z,94.30
2023-03-07T00:39:09.306Z,94.20
2023-03-07T00:41:38.733Z,94.00
2023-03-07T00:44:08.351Z,94.00
2023-03-07T00:46:37.481Z,94.00
2023-03-07T00:49:06.595Z,93.90
2023-03-07T00:51:35.733Z,93.70
2023-03-07T00:54:05.243Z,93.40
2023-03-07T00:56:34.346Z,93.40
2023-03-07T00:59:03.944Z,93.30
2023-03-07T01:01:33.393Z,93.10
2023-03-07T01:04:02.900Z,93.10
2023-03-07T01:06:34.933Z,93.00
2023-03-07T01:09:08.558Z,92.90
2023-03-07T01:11:39.494Z,93.00
2023-03-07T01:14:08.923Z,92.90
2023-03-07T01:16:40.386Z,92.90
2023-03-07T01:19:15.689Z,92.80
2023-03-07T01:21:45.946Z,92.80
2023-03-07T01:24:17.519Z,92.80
2023-03-07T01:26:53.123Z,92.60
2023-03-07T01:29:22.366Z,92.60
2023-03-07T01:31:51.630Z,92.50
2023-03-07T01:34:23.837Z,92.40
2023-03-07T01:36:55.919Z,92.30
2023-03-07T01:39:26.934Z,92.10
2023-03-07T01:41:58.933Z,92.10
2023-03-07T01:44:28.673Z,91.80
2023-03-07T01:47:02.065Z,91.60
2023-03-07T01:49:56.871Z,91.80
2023-03-07T01:53:03.559Z,91.90
2023-03-07T01:55:38.134Z,91.80
2023-03-07T01:58:18.939Z,91.80
2023-03-07T02:00:53.152Z,91.60
2023-03-07T02:03:32.132Z,91.50
2023-03-07T02:06:12.572Z,91.30
2023-03-07T02:08:43.699Z,91.60
2023-03-07T02:11:13.640Z,91.00
2023-03-07T02:13:42.819Z,90.80
2023-03-07T02:16:12.390Z,90.50
2023-03-07T02:18:47.209Z,90.30
2023-03-07T02:21:41.692Z,89.90
2023-03-07T02:24:38.291Z,89.50
2023-03-07T02:27:08.062Z,89.90
2023-03-07T02:29:37.602Z,89.70
2023-03-07T02:32:07.185Z,89.20
2023-03-07T02:34:36.995Z,89.00
2023-03-07T02:37:21.526Z,89.20
2023-03-07T02:39:51.115Z,88.60
2023-03-07T02:42:30.101Z,88.80
2023-03-07T02:45:06.312Z,87.80
2023-03-07T02:47:35.517Z,87.60
2023-03-07T02:50:05.506Z,87.50
2023-03-07T02:52:34.765Z,87.20
2023-03-07T02:55:04.305Z,86.70
2023-03-07T02:57:33.548Z,86.40
2023-03-07T03:00:03.075Z,86.10
2023-03-07T03:02:32.338Z,85.70
2023-03-07T03:05:01.572Z,85.40
2023-03-07T03:07:30.790Z,85.40
2023-03-07T03:10:00.005Z,85.40
2023-03-07T03:12:29.245Z,85.20
2023-03-07T03:14:58.460Z,84.50
2023-03-07T03:17:27.738Z,84.20
2023-03-07T03:19:57.342Z,84.10
2023-03-07T03:22:26.555Z,84.40
2023-03-07T03:24:55.756Z,83.60
2023-03-07T03:27:24.993Z,83.00
2023-03-07T03:29:56.456Z,82.90
2023-03-07T03:32:25.688Z,82.60
2023-03-07T03:34:54.935Z,82.70
2023-03-07T03:37:24.176Z,82.30
2023-03-07T03:39:55.701Z,81.40
2023-03-07T03:42:25.116Z,81.30
2023-03-07T03:44:54.318Z,81.70
2023-03-07T03:47:23.595Z,81.90
2023-03-07T03:49:52.894Z,81.90
2023-03-07T03:52:22.138Z,82.00
2023-03-07T03:54:53.215Z,81.60
2023-03-07T03:57:22.821Z,81.10
2023-03-07T03:59:52.562Z,81.10
2023-03-07T04:02:22.557Z,81.00
2023-03-07T04:04:51.827Z,80.30
2023-03-07T04:07:21.056Z,80.10
2023-03-07T04:09:50.285Z,80.40
2023-03-07T04:12:19.584Z,79.90
2023-03-07T04:14:48.828Z,80.10
2023-03-07T04:17:18.031Z,79.50
2023-03-07T04:19:47.252Z,79.50
2023-03-07T04:22:16.596Z,79.30
2023-03-07T04:24:46.201Z,79.10
2023-03-07T04:27:15.373Z,78.70
2023-03-07T04:29:44.473Z,78.70
2023-03-07T04:32:13.676Z,79.50
2023-03-07T04:34:42.846Z,79.10
2023-03-07T04:37:11.954Z,78.70
2023-03-07T04:39:41.056Z,78.20
2023-03-07T04:42:12.369Z,77.90
2023-03-07T04:44:41.422Z,77.50
2023-03-07T04:47:10.489Z,77.30
2023-03-07T04:49:39.683Z,76.80
2023-03-07T04:52:08.921Z,76.70
2023-03-07T04:54:38.006Z,76.70
2023-03-07T04:57:07.230Z,76.10
2023-03-07T04:59:40.030Z,75.50
2023-03-07T05:02:13.007Z,75.20
2023-03-07T05:04:42.119Z,75.00
2023-03-07T05:07:11.324Z,74.80
2023-03-07T05:09:40.462Z,74.70
2023-03-07T05:12:10.453Z,74.90
2023-03-07T05:14:39.547Z,75.10
2023-03-07T05:17:08.936Z,74.70
2023-03-07T05:19:38.083Z,74.30
2023-03-07T05:22:07.289Z,73.80
2023-03-07T05:24:37.581Z,73.20
2023-03-07T05:27:07.047Z,72.50
2023-03-07T05:29:36.172Z,71.80
2023-03-07T05:32:05.845Z,72.20
2023-03-07T05:34:34.982Z,70.70
2023-03-07T05:37:04.346Z,71.50
2023-03-07T05:39:33.457Z,72.00
2023-03-07T05:42:02.551Z,71.50
2023-03-07T05:44:33.960Z,71.20
2023-03-07T05:47:03.372Z,70.80
2023-03-07T05:49:32.503Z,70.20
2023-03-07T05:52:01.727Z,70.30
2023-03-07T05:54:30.850Z,70.30
2023-03-07T05:57:00.444Z,69.80
2023-03-07T05:59:29.549Z,69.40
2023-03-07T06:01:58.647Z,68.60
2023-03-07T06:04:27.861Z,68.30
2023-03-07T06:06:57.192Z,68.70
2023-03-07T06:09:26.882Z,67.00
2023-03-07T06:11:56.097Z,66.50
2023-03-07T06:14:25.835Z,67.10
2023-03-07T06:16:55.152Z,67.50
2023-03-07T06:19:24.409Z,66.90
2023-03-07T06:21:53.533Z,67.30
2023-03-07T06:24:22.676Z,67.00
2023-03-07T06:26:51.821Z,67.50
2023-03-07T06:29:20.946Z,67.50
2023-03-07T06:31:50.137Z,67.20
2023-03-07T06:34:19.509Z,67.30
2023-03-07T06:36:49.732Z,66.60
2023-03-07T06:39:22.013Z,66.90
2023-03-07T06:41:52.502Z,66.60
2023-03-07T06:44:21.730Z,66.80
2023-03-07T06:46:50.809Z,66.20
2023-03-07T06:49:19.941Z,65.90
2023-03-07T06:51:49.184Z,65.60
2023-03-07T06:54:18.575Z,66.30
2023-03-07T06:56:47.681Z,66.30
2023-03-07T06:59:16.994Z,65.90
2023-03-07T07:01:46.276Z,66.20
2023-03-07T07:04:15.677Z,65.80
2023-03-07T07:06:44.791Z,65.00
2023-03-07T07:09:15.346Z,65.30
2023-03-07T07:11:44.477Z,65.00
2023-03-07T07:14:13.927Z,64.50
2023-03-07T07:16:43.431Z,64.80
2023-03-07T07:19:12.626Z,64.50
2023-03-07T07:21:41.799Z,64.90
2023-03-07T07:24:14.360Z,64.60
2023-03-07T07:26:43.851Z,64.50
2023-03-07T07:29:13.967Z,65.00
2023-03-07T07:31:43.659Z,64.60
2023-03-07T07:34:13.176Z,64.60
2023-03-07T07:36:43.396Z,63.50
2023-03-07T07:39:13.948Z,63.30
2023-03-07T07:41:43.367Z,62.40
2023-03-07T07:44:13.951Z,62.00
2023-03-07T07:46:43.180Z,61.90
2023-03-07T07:49:12.362Z,62.50
2023-03-07T07:51:42.119Z,63.40
2023-03-07T07:54:11.912Z,63.40
2023-03-07T07:56:41.077Z,63.30
2023-03-07T07:59:10.676Z,62.80
2023-03-07T08:01:40.235Z,62.90
2023-03-07T08:04:09.593Z,62.40
2023-03-07T08:06:38.886Z,62.70
2023-03-07T08:09:08.083Z,61.50
2023-03-07T08:11:37.299Z,62.10
2023-03-07T08:14:06.426Z,61.40
2023-03-07T08:16:35.523Z,61.60
2023-03-07T08:19:05.248Z,60.80
2023-03-07T08:21:34.353Z,60.60
2023-03-07T08:24:05.114Z,62.00
2023-03-07T08:26:34.716Z,62.70
2023-03-07T08:29:04.580Z,63.10
2023-03-07T08:31:34.030Z,62.80
2023-03-07T08:34:03.301Z,62.50
2023-03-07T08:36:32.691Z,62.40
2023-03-07T08:39:01.956Z,61.80
2023-03-07T08:41:31.243Z,61.40
2023-03-07T08:44:00.393Z,61.30
2023-03-07T08:46:29.710Z,61.10
2023-03-07T08:48:59.002Z,61.10
2023-03-07T08:51:28.227Z,60.70
2023-03-07T08:53:58.742Z,60.30
2023-03-07T08:56:28.315Z,60.80
2023-03-07T08:58:57.610Z,60.20
2023-03-07T09:01:26.986Z,61.40
2023-03-07T09:03:56.161Z,61.40
2023-03-07T09:06:25.870Z,61.20
2023-03-07T09:08:55.321Z,60.50
2023-03-07T09:11:24.766Z,61.30
2023-03-07T09:13:53.946Z,61.70
2023-03-07T09:16:24.594Z,61.60
2023-03-07T09:18:53.854Z,62.00
2023-03-07T09:21:23.240Z,62.40
2023-03-07T09:23:52.431Z,62.10
2023-03-07T09:26:22.187Z,62.50
2023-03-07T09:28:51.413Z,62.40
2023-03-07T09:31:21.054Z,62.30
2023-03-07T09:33:50.317Z,62.40
2023-03-07T09:36:21.157Z,62.40
2023-03-07T09:38:50.410Z,62.80
2023-03-07T09:41:53.590Z,63.10
2023-03-07T09:44:34.729Z,63.30
2023-03-07T09:47:25.203Z,62.70
2023-03-07T09:49:55.459Z,62.60
2023-03-07T09:52:34.443Z,63.40
2023-03-07T09:55:16.691Z,62.20
2023-03-07T09:58:00.083Z,62.40
2023-03-07T10:00:44.077Z,62.40
2023-03-07T10:03:54.369Z,63.00
2023-03-07T10:06:33.891Z,63.70
2023-03-07T10:09:06.437Z,63.70
2023-03-07T10:12:09.290Z,63.50
2023-03-07T10:14:55.976Z,63.60
2023-03-07T10:17:36.392Z,63.70
2023-03-07T10:20:37.403Z,64.20
2023-03-07T10:23:42.776Z,64.40
2023-03-07T10:26:36.847Z,64.50
2023-03-07T10:29:28.209Z,64.60
2023-03-07T10:32:12.447Z,64.70
2023-03-07T10:34:43.117Z,65.60
2023-03-07T10:37:37.051Z,65.00
2023-03-07T10:40:06.765Z,65.50
2023-03-07T10:42:40.585Z,65.50
2023-03-07T10:45:14.779Z,65.30
2023-03-07T10:47:44.861Z,65.30
2023-03-07T10:51:13.120Z,65.50
2023-03-07T10:53:42.737Z,65.60
2023-03-07T10:56:20.619Z,65.60
2023-03-07T10:59:04.397Z,65.60
2023-03-07T11:01:35.489Z,65.70
2023-03-07T11:04:26.132Z,65.60
2023-03-07T11:07:01.707Z,65.70
2023-03-07T11:09:48.819Z,65.70
2023-03-07T11:12:30.587Z,65.90
2023-03-07T11:15:13.388Z,66.00
2023-03-07T11:17:45.309Z,66.40
2023-03-07T11:20:31.842Z,66.30
2023-03-07T11:23:34.372Z,66.50
2023-03-07T11:26:24.585Z,66.50
2023-03-07T11:29:19.944Z,67.00
2023-03-07T11:32:25.520Z,67.40
2023-03-07T11:35:07.683Z,67.00
2023-03-07T11:38:36.538Z,67.30
2023-03-07T11:41:29.812Z,67.40
2023-03-07T11:44:24.666Z,68.50
2023-03-07T11:47:21.524Z,68.20
2023-03-07T11:49:56.678Z,68.50
2023-03-07T11:53:03.048Z,68.90
2023-03-07T11:55:46.629Z,69.00
2023-03-07T11:58:34.531Z,68.90
2023-03-07T12:01:53.042Z,68.80
2023-03-07T12:04:47.924Z,69.40
2023-03-07T12:07:51.830Z,69.30
2023-03-07T12:10:39.249Z,69.70
2023-03-07T12:13:25.740Z,70.20
2023-03-07T12:16:28.578Z,70.60
2023-03-07T12:19:34.885Z,70.60
2023-03-07T12:22:29.880Z,70.70
2023-03-07T12:25:13.451Z,70.80
2023-03-07T12:28:19.030Z,71.20
2023-03-07T12:31:03.884Z,71.20
2023-03-07T12:34:18.399Z,71.70
2023-03-07T12:37:48.525Z,72.20
2023-03-07T12:40:48.488Z,72.80
2023-03-07T12:43:43.129Z,73.30
2023-03-07T12:46:58.880Z,74.00
2023-03-07T12:50:03.693Z,74.10
2023-03-07T12:53:20.256Z,74.80
2023-03-07T12:55:59.506Z,75.20
2023-03-07T12:59:09.481Z,75.10
2023-03-07T13:02:18.817Z,75.40
2023-03-07T13:04:47.988Z,75.50
2023-03-07T13:07:33.021Z,75.90
2023-03-07T13:10:08.401Z,76.00
2023-03-07T13:12:39.606Z,76.60
2023-03-07T13:15:22.314Z,76.70
2023-03-07T13:17:51.358Z,77.30
2023-03-07T13:20:43.288Z,77.50
2023-03-07T13:23:29.081Z,77.30
2023-03-07T13:26:02.237Z,77.60
2023-03-07T13:28:47.223Z,78.10
2023-03-07T13:31:26.396Z,78.00
2023-03-07T13:33:55.824Z,78.00
2023-03-07T13:36:39.705Z,78.20
2023-03-07T13:39:37.736Z,78.30
2023-03-07T13:42:41.114Z,78.40
2023-03-07T13:45:41.901Z,78.80
2023-03-07T13:48:16.562Z,78.60
2023-03-07T13:50:57.850Z,79.20
2023-03-07T13:53:43.229Z,79.10
2023-03-07T13:56:18.778Z,79.20
2023-03-07T13:59:08.476Z,79.20
2023-03-07T14:02:00.352Z,79.30
2023-03-07T14:04:52.811Z,79.30
2023-03-07T14:07:40.865Z,79.60
2023-03-07T14:10:33.701Z,79.60
2023-03-07T14:13:21.880Z,79.50
2023-03-07T14:16:48.226Z,79.60
2023-03-07T14:19:45.387Z,79.40
2023-03-07T14:22:55.777Z,79.70
2023-03-07T14:25:32.036Z,79.60
2023-03-07T14:28:29.605Z,79.80
2023-03-07T14:31:08.129Z,79.60
2023-03-07T14:33:40.397Z,79.80
2023-03-07T14:36:30.220Z,79.60
2023-03-07T14:39:05.892Z,79.40
2023-03-07T14:41:46.414Z,79.60
2023-03-07T14:44:53.007Z,80.10
2023-03-07T14:47:52.694Z,80.40
2023-03-07T14:50:24.586Z,80.20
2023-03-07T14:53:08.628Z,80.50
2023-03-07T14:55:45.911Z,80.50
2023-03-07T14:58:33.457Z,80.60
2023-03-07T15:01:16.995Z,80.70
2023-03-07T15:03:52.511Z,81.20
2023-03-07T15:06:25.809Z,81.30
2023-03-07T15:08:59.421Z,81.00
2023-03-07T15:11:45.642Z,81.10
2023-03-07T15:14:36.615Z,81.20
2023-03-07T15:17:19.330Z,81.10
2023-03-07T15:20:12.255Z,81.30
2023-03-07T15:22:44.867Z,81.60
2023-03-07T15:25:26.228Z,81.30
2023-03-07T15:28:10.124Z,81.40
2023-03-07T15:30:40.575Z,81.90
2023-03-07T15:33:21.423Z,81.60
2023-03-07T15:36:13.941Z,81.70
2023-03-07T15:38:52.677Z,81.40
2023-03-07T15:41:36.805Z,81.50
2023-03-07T15:44:19.004Z,81.80
2023-03-07T15:47:00.946Z,82.00
2023-03-07T15:49:55.171Z,82.10
2023-03-07T15:52:35.004Z,81.60
2023-03-07T15:55:17.499Z,82.00
2023-03-07T15:58:06.041Z,82.20
2023-03-07T16:00:43.236Z,81.90
2023-03-07T16:03:31.136Z,82.00
2023-03-07T16:06:05.027Z,82.00
2023-03-07T16:08:34.283Z,82.60
2023-03-07T16:11:08.970Z,83.30
2023-03-07T16:13:44.946Z,83.70
2023-03-07T16:16:30.604Z,84.00
2023-03-07T16:19:00.033Z,84.10
2023-03-07T16:21:29.403Z,84.30
2023-03-07T16:23:58.500Z,84.80
2023-03-07T16:26:28.240Z,85.40
2023-03-07T16:28:57.497Z,85.60
2023-03-07T16:31:26.897Z,86.30
2023-03-07T16:33:56.926Z,86.40
2023-03-07T16:36:26.100Z,86.50
2023-03-07T16:38:55.416Z,86.60
2023-03-07T16:41:24.569Z,86.80
2023-03-07T16:44:00.665Z,87.00
2023-03-07T16:46:31.041Z,87.30
2023-03-07T16:49:00.142Z,87.50
2023-03-07T16:51:31.422Z,87.50
2023-03-07T16:54:01.202Z,87.80
2023-03-07T16:56:39.783Z,87.90
2023-03-07T16:59:14.428Z,88.10
2023-03-07T17:01:47.801Z,88.30
2023-03-07T17:04:17.262Z,88.50
2023-03-07T17:06:48.829Z,88.60
2023-03-07T17:09:21.574Z,88.80
2023-03-07T17:11:53.741Z,88.80
2023-03-07T17:14:22.930Z,89.10
2023-03-07T17:16:52.811Z,89.10
2023-03-07T17:19:32.285Z,89.20
2023-03-07T17:22:04.190Z,89.50
2023-03-07T17:24:33.352Z,89.50
2023-03-07T17:27:04.580Z,89.60
2023-03-07T17:29:44.588Z,89.70
2023-03-07T17:32:13.998Z,90.00
2023-03-07T17:34:43.631Z,89.80
2023-03-07T17:37:14.415Z,90.00
2023-03-07T17:39:44.861Z,90.10
2023-03-07T17:42:14.638Z,90.10
2023-03-07T17:44:43.923Z,90.30
2023-03-07T17:47:13.152Z,90.10
2023-03-07T17:49:42.352Z,90.10
2023-03-07T17:52:15.583Z,90.10
2023-03-07T17:54:46.872Z,90.20
2023-03-07T17:57:17.029Z,90.20
2023-03-07T17:59:46.348Z,90.20
2023-03-07T18:02:16.742Z,90.00
2023-03-07T18:04:46.164Z,90.00
2023-03-07T18:07:15.364Z,90.00
2023-03-07T18:09:44.570Z,90.20
2023-03-07T18:12:13.782Z,90.20
2023-03-07T18:14:43.123Z,90.10
2023-03-07T18:17:12.367Z,90.10
2023-03-07T18:19:41.769Z,90.10
2023-03-07T18:22:10.938Z,90.10
2023-03-07T18:24:40.181Z,90.20
2023-03-07T18:27:09.770Z,90.20
2023-03-07T18:29:38.968Z,90.40
2023-03-07T18:32:08.459Z,90.80
2023-03-07T18:34:38.496Z,90.90
2023-03-07T18:37:09.198Z,91.10
2023-03-07T18:39:38.611Z,91.20
2023-03-07T18:42:08.232Z,91.20
2023-03-07T18:44:41.783Z,91.20
2023-03-07T18:47:11.531Z,91.30
2023-03-07T18:49:41.237Z,91.40
2023-03-07T18:52:10.402Z,91.50
2023-03-07T18:54:39.731Z,91.40
2023-03-07T18:57:08.903Z,91.30
2023-03-07T18:59:38.080Z,91.40
2023-03-07T19:02:07.428Z,91.40
2023-03-07T19:04:36.586Z,91.80
2023-03-07T19:07:05.843Z,91.90
2023-03-07T19:09:35.188Z,91.90
2023-03-07T19:12:04.398Z,92.00
2023-03-07T19:14:34.168Z,92.00
2023-03-07T19:17:03.398Z,92.00
2023-03-07T19:19:32.653Z,92.10
2023-03-07T19:22:01.891Z,92.20
2023-03-07T19:24:31.160Z,92.30
2023-03-07T19:27:00.401Z,92.30
2023-03-07T19:29:29.683Z,92.20
2023-03-07T19:31:59.034Z,92.20
2023-03-07T19:34:28.356Z,92.20
2023-03-07T19:36:57.531Z,92.20
2023-03-07T19:39:26.815Z,92.00
2023-03-07T19:41:56.029Z,92.20
2023-03-07T19:44:25.795Z,92.10
2023-03-07T19:46:55.015Z,92.10
2023-03-07T19:49:27.338Z,92.10
2023-03-07T19:51:56.521Z,92.10
2023-03-07T19:54:25.798Z,92.30
2023-03-07T19:56:54.982Z,92.40
2023-03-07T19:59:24.159Z,92.50
2023-03-07T20:01:53.388Z,92.60
2023-03-07T20:04:22.687Z,92.60
2023-03-07T20:06:51.953Z,92.60
2023-03-07T20:09:21.201Z,92.70
2023-03-07T20:11:50.579Z,92.90
2023-03-07T20:14:19.825Z,92.90
2023-03-07T20:16:49.053Z,93.10
2023-03-07T20:19:19.323Z,93.10
2023-03-07T20:21:51.705Z,93.10
2023-03-07T20:24:21.274Z,93.00
2023-03-07T20:26:50.551Z,93.10
2023-03-07T20:29:19.782Z,93.00
2023-03-07T20:31:51.760Z,93.00
2023-03-07T20:34:23.068Z,93.10
2023-03-07T20:36:55.691Z,93.20
2023-03-07T20:39:24.947Z,93.30
2023-03-07T20:41:54.106Z,93.60
2023-03-07T20:44:23.565Z,93.70
2023-03-07T20:46:52.754Z,93.90
2023-03-07T20:49:22.089Z,93.90
2023-03-07T20:51:51.292Z,94.00
2023-03-07T20:54:21.323Z,93.80
2023-03-07T20:56:50.584Z,93.70
2023-03-07T20:59:22.539Z,93.50
2023-03-07T21:01:51.825Z,93.70
2023-03-07T21:04:22.005Z,93.70
2023-03-07T21:06:52.225Z,93.80
2023-03-07T21:09:21.691Z,94.10
2023-03-07T21:11:51.747Z,93.80
2023-03-07T21:14:22.277Z,93.80
2023-03-07T21:16:51.871Z,93.80
2023-03-07T21:19:21.923Z,93.90
2023-03-07T21:21:51.126Z,93.70
2023-03-07T21:24:20.324Z,93.70
2023-03-07T21:26:49.675Z,93.80
2023-03-07T21:29:19.075Z,93.80
2023-03-07T21:31:48.247Z,93.80
2023-03-07T21:34:17.519Z,93.80
2023-03-07T21:36:48.604Z,94.00
2023-03-07T21:39:17.979Z,94.10
2023-03-07T21:41:47.282Z,94.10
2023-03-07T21:44:16.509Z,94.10
2023-03-07T21:46:46.219Z,93.90
2023-03-07T21:49:15.501Z,94.20
2023-03-07T21:51:44.789Z,94.30
2023-03-07T21:54:14.093Z,94.20
2023-03-07T21:56:43.310Z,94.30
2023-03-07T21:59:13.193Z,94.40
2023-03-07T22:01:42.458Z,94.50
2023-03-07T22:04:11.689Z,94.60
2023-03-07T22:06:41.027Z,94.50
2023-03-07T22:09:10.248Z,94.60
2023-03-07T22:11:39.528Z,94.70
2023-03-07T22:14:08.694Z,94.70
2023-03-07T22:16:38.015Z,94.70
2023-03-07T22:19:07.790Z,94.70
2023-03-07T22:21:36.939Z,95.00
2023-03-07T22:24:06.448Z,94.70
2023-03-07T22:26:35.975Z,94.50
2023-03-07T22:29:05.884Z,94.70
2023-03-07T22:31:35.162Z,94.60
2023-03-07T22:34:04.420Z,94.60
2023-03-07T22:36:33.650Z,94.60
2023-03-07T22:39:02.908Z,94.60
2023-03-07T22:41:32.170Z,94.50
2023-03-07T22:44:01.376Z,94.60
2023-03-07T22:46:30.683Z,94.70
2023-03-07T22:48:59.940Z,94.80
2023-03-07T22:51:29.155Z,94.80
2023-03-07T22:53:58.490Z,94.90
2023-03-07T22:56:29.254Z,95.10
2023-03-07T22:58:58.888Z,95.10
2023-03-07T23:01:30.345Z,94.90
2023-03-07T23:04:01.761Z,95.10
2023-03-07T23:06:33.640Z,95.00
2023-03-07T23:09:04.153Z,95.00
2023-03-07T23:11:36.808Z,95.10
2023-03-07T23:14:06.128Z,95.10
2023-03-07T23:16:37.208Z,95.10
2023-03-07T23:19:07.316Z,95.30
2023-03-07T23:21:37.729Z,95.40
2023-03-07T23:24:07.751Z,95.40
2023-03-07T23:26:39.867Z,95.40
2023-03-07T23:29:10.886Z,95.20
2023-03-07T23:31:43.741Z,95.60
2023-03-07T23:34:21.617Z,95.60
2023-03-07T23:36:50.798Z,95.70
2023-03-07T23:39:20.073Z,95.60
2023-03-07T23:41:49.325Z,95.80
2023-03-07T23:44:18.742Z,95.80
2023-03-07T23:46:47.976Z,95.90
2023-03-07T23:49:17.227Z,96.00
2023-03-07T23:51:46.539Z,95.90
2023-03-07T23:54:15.996Z,95.90
2023-03-07T23:56:45.191Z,95.90
2023-03-07T23:59:14.648Z,95.80
